Time;durP1;ratioP1;P1;durP2;ratioP2;P2;SDS_P1;SDS_P2;PMS_P1;PMS_P2;Temp;Humidity;BMP_temperature;BMP_pressure;BME280_temperature;BME280_humidity;BME280_pressure;Samples;Min_cycle;Max_cycle;Signal;HPM_P1;HPM_P2
2022/04/12 00:01:00;;;;;;;15.32;10.05;;;7.90;99.90;;;;;;5015838;28;20056;-74
2022/04/12 00:03:26;;;;;;;15.02;10.25;;;7.90;99.90;;;;;;5015879;28;20050;-73
2022/04/12 00:05:52;;;;;;;16.27;9.07;;;7.80;99.90;;;;;;4998496;28;20505;-75
2022/04/12 00:08:18;;;;;;;16.43;9.63;;;7.80;99.90;;;;;;5016102;28;20125;-74
2022/04/12 00:10:44;;;;;;;11.60;9.05;;;7.80;99.90;;;;;;5015774;28;20507;-74
2022/04/12 00:13:10;;;;;;;15.00;9.35;;;7.80;99.90;;;;;;5015289;28;20375;-74
2022/04/12 00:15:35;;;;;;;13.50;9.82;;;7.70;99.90;;;;;;5015611;28;20042;-74
2022/04/12 00:20:46;;;;;;;14.18;9.40;;;7.60;99.90;;;;;;5015533;28;20049;-74
2022/04/12 00:23:14;;;;;;;15.43;9.35;;;7.60;99.90;;;;;;5015510;28;20478;-73
2022/04/12 00:25:42;;;;;;;15.45;10.02;;;7.60;99.90;;;;;;5015348;28;20046;-73
2022/04/12 00:28:09;;;;;;;15.48;9.48;;;7.50;99.90;;;;;;5015404;28;20064;-74
2022/04/12 00:30:35;;;;;;;17.20;10.10;;;7.50;99.90;;;;;;4997724;28;20136;-75
2022/04/12 00:33:00;;;;;;;16.58;8.80;;;7.50;99.90;;;;;;5015010;28;20050;-76
2022/04/12 00:35:26;;;;;;;15.15;9.30;;;7.50;99.90;;;;;;5014759;28;20053;-73
2022/04/12 00:37:52;;;;;;;14.30;9.90;;;7.40;99.90;;;;;;5015326;28;20052;-75
2022/04/12 00:40:18;;;;;;;13.13;8.73;;;7.40;99.90;;;;;;5015112;28;20042;-74
2022/04/12 00:42:45;;;;;;;17.58;10.25;;;7.40;99.90;;;;;;5015184;28;20452;-75
2022/04/12 00:45:11;;;;;;;12.98;9.00;;;7.40;99.90;;;;;;5015104;28;20042;-73
2022/04/12 00:47:36;;;;;;;13.32;8.88;;;7.40;99.90;;;;;;5015381;28;20188;-73
2022/04/12 00:50:03;;;;;;;17.13;9.32;;;7.30;99.90;;;;;;5015068;28;20145;-75
2022/04/12 00:52:29;;;;;;;16.13;9.95;;;7.30;99.90;;;;;;5014862;28;20056;-73
2022/04/12 00:54:55;;;;;;;13.25;8.90;;;7.30;99.90;;;;;;5014781;28;20038;-73
2022/04/12 00:57:21;;;;;;;17.10;9.23;;;7.20;99.90;;;;;;5015356;28;20049;-74
2022/04/12 00:59:46;;;;;;;13.40;9.23;;;7.20;99.90;;;;;;5014850;28;20037;-74
2022/04/12 01:02:12;;;;;;;13.48;9.30;;;7.20;99.90;;;;;;5014820;28;20046;-72
2022/04/12 01:04:38;;;;;;;14.60;9.30;;;7.20;99.90;;;;;;5014742;28;20535;-74
2022/04/12 01:07:04;;;;;;;16.35;9.52;;;7.10;99.90;;;;;;5014743;28;20053;-73
2022/04/12 01:09:30;;;;;;;14.68;8.85;;;7.10;99.90;;;;;;5014617;28;20088;-74
2022/04/12 01:11:57;;;;;;;16.60;8.55;;;7.10;99.90;;;;;;5015129;28;20088;-71
2022/04/12 01:14:25;;;;;;;13.85;9.07;;;7.10;99.90;;;;;;5014506;28;20077;-76
2022/04/12 01:16:51;;;;;;;13.15;8.52;;;7.00;99.90;;;;;;5014537;28;20053;-73
2022/04/12 01:19:17;;;;;;;14.10;8.50;;;7.00;99.90;;;;;;5014535;28;20394;-74
2022/04/12 01:21:50;;;;;;;14.93;8.93;;;7.00;99.90;;;;;;5014462;28;20037;-72
2022/04/12 01:24:16;;;;;;;14.98;9.30;;;6.90;99.90;;;;;;5014616;28;20474;-74
2022/04/12 01:26:42;;;;;;;12.65;8.88;;;6.90;99.90;;;;;;5014438;28;20053;-74
2022/04/12 01:29:08;;;;;;;11.20;8.05;;;6.90;99.90;;;;;;5014723;28;20050;-74
2022/04/12 01:31:33;;;;;;;13.57;8.63;;;6.80;99.90;;;;;;5014149;28;20115;-75
2022/04/12 01:33:59;;;;;;;14.55;8.95;;;6.80;99.90;;;;;;5014298;28;20125;-74
2022/04/12 01:36:24;;;;;;;15.68;9.13;;;6.70;99.90;;;;;;5014291;28;20088;-73
2022/04/12 01:38:50;;;;;;;12.88;8.32;;;6.70;99.90;;;;;;5014202;28;20050;-74
2022/04/12 01:41:16;;;;;;;13.23;8.50;;;6.70;99.90;;;;;;5014154;28;20108;-74
2022/04/12 01:43:41;;;;;;;13.25;9.00;;;6.60;99.90;;;;;;5014675;28;20042;-72
2022/04/12 01:46:07;;;;;;;13.90;8.75;;;6.60;99.90;;;;;;5014282;28;20129;-73
2022/04/12 01:48:33;;;;;;;13.63;8.68;;;6.60;99.90;;;;;;5014258;28;20050;-74
2022/04/12 01:50:58;;;;;;;13.50;8.85;;;6.50;99.90;;;;;;5014184;28;20038;-73
2022/04/12 01:53:24;;;;;;;14.38;9.93;;;6.50;99.90;;;;;;5013961;28;20076;-75
2022/04/12 01:55:49;;;;;;;17.70;9.40;;;6.50;99.90;;;;;;5013917;28;20042;-73
2022/04/12 01:58:15;;;;;;;15.65;8.98;;;6.50;99.90;;;;;;5014009;28;20046;-73
2022/04/12 02:00:42;;;;;;;15.00;8.23;;;6.50;99.90;;;;;;5014245;28;20042;-74
2022/04/12 02:03:08;;;;;;;13.82;9.38;;;6.50;99.90;;;;;;5013869;28;20050;-74
2022/04/12 02:05:34;;;;;;;16.35;9.43;;;6.40;99.90;;;;;;5013913;28;20038;-72
2022/04/12 02:08:00;;;;;;;14.13;9.35;;;6.40;99.90;;;;;;5013749;28;20379;-74
2022/04/12 02:10:25;;;;;;;14.82;9.40;;;6.40;99.90;;;;;;5013638;28;20050;-74
2022/04/12 02:12:51;;;;;;;12.27;8.75;;;6.30;99.90;;;;;;5013841;28;20482;-75
2022/04/12 02:15:17;;;;;;;12.70;8.82;;;6.30;99.90;;;;;;5014082;28;20049;-74
2022/04/12 02:17:43;;;;;;;13.63;8.93;;;6.20;99.90;;;;;;5013815;28;20049;-73
2022/04/12 02:20:09;;;;;;;15.48;9.32;;;6.20;99.90;;;;;;5013778;28;20057;-72
2022/04/12 02:22:35;;;;;;;12.48;8.27;;;6.10;99.90;;;;;;5013806;28;20052;-74
2022/04/12 02:25:01;;;;;;;16.75;9.02;;;6.10;99.90;;;;;;5013687;28;20049;-73
2022/04/12 02:27:27;;;;;;;14.07;8.27;;;6.10;99.90;;;;;;5013684;28;20478;-73
2022/04/12 02:29:53;;;;;;;15.20;9.02;;;6.10;99.90;;;;;;5014030;28;20091;-73
2022/04/12 02:32:18;;;;;;;13.25;8.70;;;6.00;99.90;;;;;;5013349;28;20093;-73
2022/04/12 02:34:44;;;;;;;12.55;8.60;;;6.00;99.90;;;;;;5013572;28;20132;-74
2022/04/12 02:37:09;;;;;;;13.48;8.85;;;6.00;99.90;;;;;;5013694;28;20053;-74
2022/04/12 02:39:35;;;;;;;13.98;9.13;;;6.00;99.90;;;;;;5013530;28;20042;-75
2022/04/12 02:42:01;;;;;;;15.77;8.95;;;6.00;99.90;;;;;;5013692;28;20049;-73
2022/04/12 02:44:27;;;;;;;12.98;8.68;;;5.90;99.90;;;;;;5013834;28;20171;-73
2022/04/12 02:46:53;;;;;;;15.45;9.52;;;5.90;99.90;;;;;;5013594;28;20052;-72
2022/04/12 02:49:19;;;;;;;13.40;8.75;;;5.90;99.90;;;;;;5013500;28;20053;-73
2022/04/12 02:51:45;;;;;;;13.77;8.70;;;5.90;99.90;;;;;;5013435;28;20046;-72
2022/04/12 02:54:11;;;;;;;14.73;8.48;;;5.90;99.90;;;;;;5013433;28;20053;-74
2022/04/12 02:56:37;;;;;;;12.20;8.55;;;5.80;99.90;;;;;;5013638;28;20093;-74
2022/04/12 02:59:03;;;;;;;12.27;8.43;;;5.80;99.90;;;;;;5017111;28;20497;-75
2022/04/12 03:01:29;;;;;;;14.20;8.60;;;5.80;99.90;;;;;;5017442;28;20088;-74
2022/04/12 03:03:54;;;;;;;13.90;8.52;;;5.80;99.90;;;;;;5016997;28;20092;-75
2022/04/12 03:06:20;;;;;;;12.18;8.32;;;5.70;99.90;;;;;;5016928;28;20038;-73
2022/04/12 03:08:46;;;;;;;10.98;7.78;;;5.70;99.90;;;;;;5016960;28;20498;-76
2022/04/12 03:11:11;;;;;;;14.88;9.15;;;5.70;99.90;;;;;;5016890;28;20441;-75
2022/04/12 03:13:37;;;;;;;13.13;7.90;;;5.70;99.90;;;;;;4999539;28;20046;-73
2022/04/12 03:16:02;;;;;;;13.95;8.48;;;5.70;99.90;;;;;;5016688;28;20087;-74
2022/04/12 03:18:28;;;;;;;14.95;8.70;;;5.60;99.90;;;;;;5016745;28;20489;-75
2022/04/12 03:20:53;;;;;;;15.98;7.90;;;5.60;99.90;;;;;;5016370;28;20105;-73
2022/04/12 03:23:19;;;;;;;15.63;8.63;;;5.50;99.90;;;;;;5016627;28;20045;-73
2022/04/12 03:25:44;;;;;;;11.95;8.10;;;5.50;99.90;;;;;;5017051;28;20048;-75
2022/04/12 03:28:10;;;;;;;12.85;8.63;;;5.50;99.90;;;;;;5016559;28;20501;-74
2022/04/12 03:30:36;;;;;;;15.90;9.02;;;5.40;99.90;;;;;;5016298;28;20137;-74
2022/04/12 03:33:01;;;;;;;14.60;9.00;;;5.40;99.90;;;;;;5016651;28;20125;-75
2022/04/12 03:35:27;;;;;;;14.48;8.55;;;5.40;99.90;;;;;;5016334;28;20034;-73
2022/04/12 03:37:53;;;;;;;12.40;8.27;;;5.40;99.90;;;;;;5016421;28;20045;-73
2022/04/12 03:40:18;;;;;;;17.08;8.70;;;5.50;99.90;;;;;;5016394;28;20050;-73
2022/04/12 03:42:44;;;;;;;11.73;8.85;;;5.40;99.90;;;;;;5016258;28;20041;-72
2022/04/12 03:45:10;;;;;;;15.15;8.40;;;5.40;99.90;;;;;;5016168;28;20049;-75
2022/04/12 03:47:36;;;;;;;12.85;9.13;;;5.40;99.90;;;;;;5016350;28;20052;-73
2022/04/12 03:50:01;;;;;;;12.38;8.40;;;5.40;99.90;;;;;;5016197;28;20049;-72
2022/04/12 03:52:27;;;;;;;12.35;8.20;;;5.50;99.90;;;;;;5015875;28;20041;-73
2022/04/12 03:54:53;;;;;;;14.85;8.77;;;5.50;99.90;;;;;;5015928;28;20068;-76
2022/04/12 03:57:19;;;;;;;15.15;8.55;;;5.50;99.90;;;;;;5016423;28;20045;-74
2022/04/12 03:59:44;;;;;;;13.18;9.23;;;5.50;99.90;;;;;;5016390;28;20053;-74
2022/04/12 04:02:10;;;;;;;13.73;8.32;;;5.60;99.90;;;;;;5015989;28;20089;-73
2022/04/12 04:04:35;;;;;;;13.25;8.30;;;5.60;99.90;;;;;;5015903;28;20049;-75
2022/04/12 04:07:01;;;;;;;16.70;8.73;;;5.60;99.90;;;;;;5015825;28;20050;-74
2022/04/12 04:09:26;;;;;;;14.50;8.77;;;5.60;99.90;;;;;;5015646;28;20046;-74
2022/04/12 04:11:53;;;;;;;14.40;8.35;;;5.60;99.90;;;;;;5015770;28;20041;-74
2022/04/12 04:14:18;;;;;;;12.10;8.70;;;5.60;99.90;;;;;;5016015;28;20060;-74
2022/04/12 04:16:44;;;;;;;14.18;8.90;;;5.60;99.90;;;;;;5015698;28;20398;-72
2022/04/12 04:19:09;;;;;;;13.23;9.00;;;5.70;99.90;;;;;;5015600;28;20053;-73
2022/04/12 04:21:36;;;;;;;13.90;8.73;;;5.70;99.90;;;;;;5015566;28;20069;-73
2022/04/12 04:24:02;;;;;;;13.00;8.77;;;5.70;99.90;;;;;;5015471;28;20046;-74
2022/04/12 04:26:28;;;;;;;12.95;8.00;;;5.70;99.90;;;;;;5015506;28;20048;-74
2022/04/12 04:28:53;;;;;;;14.85;8.27;;;5.70;99.90;;;;;;5015461;28;20046;-72
2022/04/12 04:31:19;;;;;;;13.88;8.68;;;5.70;99.90;;;;;;5015722;28;20093;-71
2022/04/12 04:33:44;;;;;;;14.85;8.18;;;5.70;99.90;;;;;;5015075;28;20046;-72
2022/04/12 04:36:10;;;;;;;12.13;8.25;;;5.70;99.90;;;;;;5015191;28;20096;-75
2022/04/12 04:38:35;;;;;;;12.77;8.13;;;5.70;99.90;;;;;;5015213;28;20046;-77
2022/04/12 04:41:01;;;;;;;12.60;8.38;;;5.70;99.90;;;;;;5015621;28;20045;-79
2022/04/12 04:43:27;;;;;;;13.18;8.02;;;5.70;99.90;;;;;;5014416;28;20100;-75
2022/04/12 04:45:53;;;;;;;15.07;8.05;;;5.70;99.90;;;;;;4997470;28;20049;-76
2022/04/12 04:48:18;;;;;;;13.93;8.50;;;5.70;99.90;;;;;;5015119;28;20053;-76
2022/04/12 04:50:44;;;;;;;13.43;8.10;;;5.60;99.90;;;;;;5014947;28;20100;-81
2022/04/12 04:53:10;;;;;;;12.80;8.35;;;5.60;99.90;;;;;;5014978;28;20042;-75
2022/04/12 04:55:37;;;;;;;13.90;8.07;;;5.60;99.90;;;;;;5015431;28;20441;-74
2022/04/12 04:58:04;;;;;;;11.82;8.32;;;5.60;99.90;;;;;;5014912;28;20132;-71
2022/04/12 05:00:31;;;;;;;;;;;5.60;99.90;;;;;;5015288;28;20041;-75
2022/04/12 05:02:57;;;;;;;13.00;7.88;;;5.60;99.90;;;;;;5013964;28;19922;-76
2022/04/12 05:05:24;;;;;;;12.30;7.80;;;5.60;99.90;;;;;;5013048;28;20073;-76
2022/04/12 05:07:52;;;;;;;11.77;8.20;;;5.60;99.90;;;;;;5014689;28;20042;-75
2022/04/12 05:10:29;;;;;;;13.10;8.43;;;5.50;99.90;;;;;;5014679;28;20075;-75
2022/04/12 05:12:56;;;;;;;12.45;8.20;;;5.50;99.90;;;;;;5015338;28;20081;-74
2022/04/12 05:15:23;;;;;;;13.93;8.48;;;5.50;99.90;;;;;;5014373;28;20041;-76
2022/04/12 05:17:50;;;;;;;16.83;8.77;;;5.50;99.90;;;;;;5014768;28;20468;-75
2022/04/12 05:20:15;;;;;;;;;;;5.50;99.90;;;;;;5014475;28;20050;-75
2022/04/12 05:22:41;;;;;;;12.73;8.45;;;5.40;99.90;;;;;;5014354;28;20008;-74
2022/04/12 05:25:07;;;;;;;15.23;8.57;;;5.40;99.90;;;;;;5014408;28;20046;-75
2022/04/12 05:27:34;;;;;;;16.27;8.85;;;5.40;99.90;;;;;;5014465;28;20133;-75
2022/04/12 05:30:04;;;;;;;;;;;5.40;99.90;;;;;;5014798;28;20049;-76
2022/04/12 05:32:29;;;;;;;11.52;7.50;;;5.50;99.90;;;;;;5014440;28;19967;-75
2022/04/12 05:34:55;;;;;;;14.65;8.35;;;5.50;99.90;;;;;;4996849;28;20041;-75
2022/04/12 05:37:20;;;;;;;12.68;7.97;;;5.50;99.90;;;;;;5014180;28;20169;-75
2022/04/12 05:39:46;;;;;;;14.80;7.82;;;5.60;99.90;;;;;;5014272;28;20057;-77
2022/04/12 05:42:11;;;;;;;14.18;8.07;;;5.60;99.90;;;;;;5014146;28;20061;-76
2022/04/12 05:44:37;;;;;;;16.85;8.48;;;5.70;99.90;;;;;;5014153;28;20132;-75
2022/04/12 05:47:04;;;;;;;13.68;8.35;;;5.80;99.90;;;;;;5014385;28;20046;-77
2022/04/12 05:49:30;;;;;;;11.93;8.05;;;5.90;99.90;;;;;;5014050;28;20061;-77
2022/04/12 05:51:56;;;;;;;12.80;7.60;;;5.90;99.90;;;;;;5014043;28;20046;-75
2022/04/12 05:54:23;;;;;;;13.30;7.78;;;6.10;99.90;;;;;;5014352;28;20112;-75
2022/04/12 05:56:49;;;;;;;14.50;8.05;;;6.20;99.90;;;;;;5013994;28;20049;-76
2022/04/12 05:59:14;;;;;;;14.88;8.10;;;6.40;99.90;;;;;;5014016;28;20046;-75
2022/04/12 06:01:40;;;;;;;12.13;8.20;;;6.50;99.90;;;;;;5013976;28;20046;-75
2022/04/12 06:04:07;;;;;;;13.60;7.72;;;6.70;99.90;;;;;;5014020;28;20042;-76
2022/04/12 06:06:33;;;;;;;11.80;7.68;;;6.80;99.90;;;;;;5013775;28;20081;-75
2022/04/12 06:08:59;;;;;;;14.23;7.75;;;6.90;99.90;;;;;;5014508;28;20092;-74
2022/04/12 06:11:25;;;;;;;12.73;8.25;;;7.00;99.90;;;;;;5014112;28;20046;-75
2022/04/12 06:13:51;;;;;;;12.90;8.10;;;7.10;99.90;;;;;;5013810;28;20099;-75
2022/04/12 06:16:16;;;;;;;14.65;8.07;;;7.20;99.90;;;;;;5013823;28;20297;-77
2022/04/12 06:18:42;;;;;;;11.93;7.90;;;7.30;99.90;;;;;;5013760;28;20077;-75
2022/04/12 06:21:07;;;;;;;14.35;7.88;;;7.40;99.90;;;;;;5013674;28;20121;-76
2022/04/12 06:23:33;;;;;;;12.90;7.07;;;7.40;99.90;;;;;;5013430;28;20041;-75
2022/04/12 06:25:58;;;;;;;12.07;8.00;;;7.50;99.90;;;;;;5013665;28;20133;-76
2022/04/12 06:28:24;;;;;;;16.45;7.78;;;7.60;99.90;;;;;;5013681;28;20042;-77
2022/04/12 06:30:50;;;;;;;14.02;8.20;;;7.60;99.90;;;;;;5013727;28;20058;-77
2022/04/12 06:33:15;;;;;;;15.65;8.55;;;7.70;99.90;;;;;;5016853;28;20050;-74
2022/04/12 06:35:41;;;;;;;13.65;7.65;;;7.80;99.90;;;;;;5017332;28;20113;-76
2022/04/12 06:38:08;;;;;;;11.30;7.38;;;7.80;99.90;;;;;;5017499;28;20072;-76
2022/04/12 06:40:35;;;;;;;12.98;7.78;;;7.90;99.90;;;;;;5017422;28;20064;-75
2022/04/12 06:43:01;;;;;;;14.77;7.80;;;8.00;99.90;;;;;;5017476;28;20068;-76
2022/04/12 06:45:27;;;;;;;11.85;8.10;;;8.10;99.90;;;;;;5017785;28;20033;-76
2022/04/12 06:47:56;;;;;;;10.82;7.03;;;8.20;99.90;;;;;;5017342;28;20403;-75
2022/04/12 06:50:22;;;;;;;12.77;7.22;;;8.30;99.90;;;;;;4999890;28;20049;-75
2022/04/12 06:52:48;;;;;;;13.07;8.43;;;8.40;99.90;;;;;;5017670;28;20056;-74
2022/04/12 06:55:16;;;;;;;12.48;8.18;;;8.60;99.90;;;;;;5017100;28;20034;-75
2022/04/12 06:57:42;;;;;;;11.88;7.82;;;8.60;99.90;;;;;;5017178;28;20085;-77
2022/04/12 07:00:08;;;;;;;12.20;7.30;;;8.70;99.90;;;;;;5017006;28;20096;-76
2022/04/12 07:02:34;;;;;;;12.85;7.57;;;8.70;99.90;;;;;;5017258;28;20079;-75
2022/04/12 07:05:00;;;;;;;14.25;7.38;;;8.80;99.90;;;;;;5017038;28;20088;-74
2022/04/12 07:07:26;;;;;;;19.85;6.78;;;8.80;99.90;;;;;;5017027;28;20052;-75
2022/04/12 07:09:52;;;;;;;11.23;7.18;;;8.80;99.90;;;;;;5016938;28;20375;-75
2022/04/12 07:12:17;;;;;;;13.32;7.38;;;8.90;99.90;;;;;;5016899;28;20045;-75
2022/04/12 07:14:43;;;;;;;14.70;7.03;;;8.90;99.90;;;;;;5017017;28;20042;-76
2022/04/12 07:17:08;;;;;;;15.93;8.13;;;9.00;99.90;;;;;;5016882;28;20056;-75
2022/04/12 07:19:34;;;;;;;12.70;7.20;;;9.00;99.90;;;;;;5016787;28;20045;-76
2022/04/12 07:22:00;;;;;;;10.98;7.10;;;9.10;99.90;;;;;;5016709;28;20552;-76
2022/04/12 07:24:25;;;;;;;13.85;7.00;;;9.20;99.90;;;;;;5017152;28;20096;-75
2022/04/12 07:26:51;;;;;;;17.20;6.70;;;9.30;99.90;;;;;;5016740;28;20564;-74
2022/04/12 07:29:16;;;;;;;12.15;7.60;;;9.40;99.90;;;;;;5016567;28;20080;-77
2022/04/12 07:31:42;;;;;;;13.05;7.28;;;9.50;99.90;;;;;;5016627;28;20060;-75
2022/04/12 07:34:09;;;;;;;11.20;6.90;;;9.50;99.90;;;;;;5016285;28;20445;-75
2022/04/12 07:36:39;;;;;;;13.05;7.32;;;9.60;99.90;;;;;;5016641;28;20042;-74
2022/04/12 07:39:05;;;;;;;11.80;7.00;;;9.60;99.90;;;;;;5016686;28;20045;-74
2022/04/12 07:41:31;;;;;;;11.20;7.30;;;9.70;99.90;;;;;;5016203;28;20056;-74
2022/04/12 07:43:57;;;;;;;12.77;7.18;;;9.70;99.90;;;;;;5015783;28;20049;-75
2022/04/12 07:46:22;;;;;;;12.55;6.97;;;9.90;99.90;;;;;;5016228;28;20065;-75
2022/04/12 07:48:48;;;;;;;13.20;7.30;;;10.10;99.90;;;;;;5016185;28;20046;-76
2022/04/12 07:51:13;;;;;;;14.73;8.95;;;10.30;99.90;;;;;;5016630;28;20046;-75
2022/04/12 07:53:39;;;;;;;10.43;6.95;;;10.40;99.90;;;;;;5016165;28;20146;-75
2022/04/12 07:56:05;;;;;;;11.25;6.20;;;10.50;99.90;;;;;;5016006;28;20502;-77
2022/04/12 07:58:30;;;;;;;11.73;7.10;;;10.60;99.90;;;;;;5015880;28;20053;-74
2022/04/12 08:00:56;;;;;;;10.70;7.03;;;10.60;99.90;;;;;;5016231;28;20042;-74
2022/04/12 08:03:21;;;;;;;13.27;6.93;;;10.80;99.90;;;;;;5016044;28;20397;-74
2022/04/12 08:05:48;;;;;;;10.27;6.40;;;10.90;99.90;;;;;;5015877;28;20112;-75
2022/04/12 08:08:14;;;;;;;12.65;7.13;;;11.00;99.90;;;;;;5016218;28;20041;-74
2022/04/12 08:10:39;;;;;;;10.40;6.55;;;11.10;99.90;;;;;;5016110;28;20505;-74
2022/04/12 08:13:05;;;;;;;13.85;6.70;;;11.30;99.90;;;;;;5015680;28;20482;-74
2022/04/12 08:15:30;;;;;;;9.65;6.75;;;11.40;99.90;;;;;;5015629;28;20041;-74
2022/04/12 08:17:56;;;;;;;12.30;6.72;;;11.50;99.90;;;;;;5015756;28;20046;-74
2022/04/12 08:20:22;;;;;;;9.07;6.30;;;11.60;99.90;;;;;;5015574;28;20474;-75
2022/04/12 08:22:48;;;;;;;11.25;6.38;;;11.70;99.90;;;;;;5015859;28;20034;-76
2022/04/12 08:25:14;;;;;;;12.80;6.72;;;11.80;99.90;;;;;;5015933;28;20093;-74
2022/04/12 08:27:40;;;;;;;10.85;6.60;;;12.00;99.90;;;;;;5015492;28;20042;-76
2022/04/12 08:30:09;;;;;;;10.15;6.38;;;12.10;99.90;;;;;;5015456;28;20049;-74
2022/04/12 08:32:35;;;;;;;9.90;6.20;;;12.10;99.90;;;;;;5015490;28;20085;-74
2022/04/12 08:35:01;;;;;;;12.40;7.00;;;12.20;99.90;;;;;;5015216;28;20548;-75
2022/04/12 08:37:26;;;;;;;10.27;6.50;;;12.30;99.90;;;;;;5015725;28;20391;-76
2022/04/12 08:39:52;;;;;;;10.00;6.70;;;12.40;99.90;;;;;;5015251;28;20052;-73
2022/04/12 08:42:18;;;;;;;15.82;7.65;;;12.60;99.90;;;;;;5015340;28;20049;-74
2022/04/12 08:44:45;;;;;;;10.85;7.35;;;12.70;99.90;;;;;;5015151;28;20049;-75
2022/04/12 08:47:14;;;;;;;10.68;6.68;;;12.80;99.90;;;;;;5015161;28;20393;-73
2022/04/12 08:49:40;;;;;;;9.77;6.72;;;12.90;99.90;;;;;;5015030;28;20096;-73
2022/04/12 08:52:11;;;;;;;11.93;7.13;;;13.00;99.90;;;;;;5015068;28;20045;-75
2022/04/12 08:54:37;;;;;;;10.38;6.60;;;13.00;99.90;;;;;;5014149;28;20045;-73
2022/04/12 08:57:03;;;;;;;9.27;5.97;;;13.10;99.90;;;;;;5014924;28;20054;-74
2022/04/12 08:59:29;;;;;;;12.77;6.10;;;13.30;99.90;;;;;;5014922;28;20049;-74
2022/04/12 09:01:56;;;;;;;9.05;5.32;;;13.40;99.90;;;;;;5014904;28;20042;-73
2022/04/12 09:04:21;;;;;;;11.18;6.20;;;13.50;99.90;;;;;;5014737;28;20049;-74
2022/04/12 09:06:51;;;;;;;10.32;6.25;;;13.70;99.90;;;;;;5014417;28;20049;-76
2022/04/12 09:09:19;;;;;;;9.40;6.05;;;13.80;99.90;;;;;;5014684;28;20084;-74
2022/04/12 09:11:55;;;;;;;10.20;6.30;;;14.00;99.90;;;;;;5014616;28;20060;-76
2022/04/12 09:14:20;;;;;;;10.80;6.90;;;14.10;99.90;;;;;;5014883;28;20045;-75
2022/04/12 09:16:46;;;;;;;8.52;6.40;;;14.20;99.90;;;;;;5014447;28;20050;-74
2022/04/12 09:19:12;;;;;;;10.40;6.88;;;14.30;99.90;;;;;;5014579;28;20053;-75
2022/04/12 09:21:48;;;;;;;9.70;6.57;;;14.40;99.90;;;;;;5014936;28;20136;-76
2022/04/12 09:24:21;;;;;;;10.70;6.45;;;14.50;99.90;;;;;;5014701;28;20049;-74
2022/04/12 09:26:55;;;;;;;9.98;6.35;;;14.60;99.90;;;;;;5014360;28;20108;-76
2022/04/12 09:29:27;;;;;;;9.40;6.68;;;14.70;99.90;;;;;;5014448;28;20449;-76
2022/04/12 09:31:57;;;;;;;9.55;6.63;;;14.80;99.90;;;;;;5014410;28;20104;-75
2022/04/12 09:34:23;;;;;;;12.70;6.50;;;14.80;99.90;;;;;;5014531;28;20457;-76
2022/04/12 09:36:49;;;;;;;10.20;6.05;;;14.90;99.90;;;;;;4996647;28;20038;-77
2022/04/12 09:39:18;;;;;;;14.10;6.75;;;15.00;99.90;;;;;;5014291;28;20107;-74
2022/04/12 09:41:48;;;;;;;11.48;6.75;;;15.00;99.90;;;;;;5014457;28;20049;-75
2022/04/12 09:44:17;;;;;;;9.93;6.30;;;15.00;99.90;;;;;;5014195;28;20060;-77
2022/04/12 09:46:43;;;;;;;12.85;6.80;;;15.10;99.90;;;;;;5014088;28;20042;-75
2022/04/12 09:49:11;;;;;;;10.23;6.23;;;15.20;99.90;;;;;;5014121;28;20061;-75
2022/04/12 09:51:38;;;;;;;11.77;6.55;;;15.40;99.90;;;;;;5014054;28;20053;-76
2022/04/12 09:54:06;;;;;;;10.65;6.03;;;15.50;99.90;;;;;;5014190;28;20049;-75
2022/04/12 09:56:33;;;;;;;12.65;7.00;;;15.40;99.90;;;;;;5013831;28;20049;-75
2022/04/12 09:59:01;;;;;;;13.50;6.28;;;15.50;99.90;;;;;;5014434;28;20052;-77
2022/04/12 10:01:28;;;;;;;12.65;6.40;;;15.70;99.90;;;;;;5013973;28;20041;-76
2022/04/12 10:03:55;;;;;;;13.35;6.63;;;15.90;99.90;;;;;;5013916;28;20042;-76
2022/04/12 10:06:23;;;;;;;9.73;6.40;;;15.90;99.90;;;;;;5013809;28;20049;-77
2022/04/12 10:08:54;;;;;;;10.73;5.60;;;16.00;99.90;;;;;;5013832;28;20104;-76
2022/04/12 10:11:20;;;;;;;11.25;6.22;;;16.10;99.90;;;;;;5013843;28;20050;-76
2022/04/12 10:13:47;;;;;;;13.18;6.70;;;16.20;99.90;;;;;;5013763;28;20392;-74
2022/04/12 10:16:15;;;;;;;10.18;6.53;;;16.30;99.90;;;;;;5013719;28;20044;-76
2022/04/12 10:18:40;;;;;;;11.70;6.40;;;16.30;99.90;;;;;;5013788;28;20130;-76
2022/04/12 10:21:06;;;;;;;13.10;7.03;;;16.30;99.90;;;;;;5013512;28;20486;-75
2022/04/12 10:23:33;;;;;;;9.47;6.17;;;16.40;99.90;;;;;;5013774;28;20116;-75
2022/04/12 10:26:00;;;;;;;11.05;6.53;;;16.40;99.90;;;;;;5013451;28;20371;-77
2022/04/12 10:28:28;;;;;;;10.75;6.28;;;16.50;99.90;;;;;;5013750;28;20053;-77
2022/04/12 10:31:12;;;;;;;12.38;5.85;;;16.60;99.90;;;;;;5013594;28;20050;-76
2022/04/12 10:33:38;;;;;;;10.25;6.35;;;16.60;99.90;;;;;;5013827;28;20089;-75
2022/04/12 10:36:06;;;;;;;13.40;6.23;;;16.70;99.90;;;;;;5013505;28;20088;-77
2022/04/12 10:38:42;;;;;;;11.02;6.43;;;16.70;99.90;;;;;;5012404;28;20041;-77
2022/04/12 10:41:14;;;;;;;10.87;6.37;;;16.80;99.90;;;;;;5013623;28;20041;-76
2022/04/12 10:43:40;;;;;;;9.77;6.40;;;17.00;99.90;;;;;;5013700;28;20050;-77
2022/04/12 10:46:11;;;;;;;8.88;5.63;;;17.10;99.90;;;;;;5013614;28;20104;-76
2022/04/12 10:48:37;;;;;;;11.27;6.38;;;17.10;99.90;;;;;;5013509;28;20437;-74
2022/04/12 10:51:04;;;;;;;12.47;6.57;;;17.20;99.90;;;;;;5013461;28;20100;-77
2022/04/12 10:53:39;;;;;;;9.82;6.93;;;17.10;99.90;;;;;;5013366;28;20088;-74
2022/04/12 10:56:08;;;;;;;12.48;6.25;;;17.10;99.90;;;;;;5013310;28;20125;-75
2022/04/12 10:58:34;;;;;;;11.25;6.47;;;17.20;99.90;;;;;;5013103;28;20054;-77
2022/04/12 11:01:00;;;;;;;9.20;6.10;;;17.10;99.90;;;;;;5013075;28;20042;-79
2022/04/12 11:03:41;;;;;;;9.32;6.22;;;17.20;99.90;;;;;;5013168;28;20046;-72
2022/04/12 11:06:27;;;;;;;12.02;6.47;;;17.20;99.90;;;;;;5013332;28;20472;-74
2022/04/12 11:08:55;;;;;;;9.63;6.45;;;17.40;99.90;;;;;;5013272;28;20046;-75
2022/04/12 11:11:27;;;;;;;13.15;6.93;;;17.50;99.90;;;;;;5013250;28;20434;-74
2022/04/12 11:13:54;;;;;;;11.30;6.75;;;17.60;99.80;;;;;;5013152;28;20397;-75
2022/04/12 11:16:24;;;;;;;15.02;6.55;;;17.70;99.90;;;;;;5013750;28;20046;-74
2022/04/12 11:18:51;;;;;;;14.23;6.55;;;17.80;99.90;;;;;;5015129;28;20486;-74
2022/04/12 11:21:22;;;;;;;9.02;6.43;;;17.70;99.40;;;;;;5016651;28;20568;-75
2022/04/12 11:24:06;;;;;;;11.15;6.90;;;17.60;99.90;;;;;;5016663;28;20053;-75
2022/04/12 11:26:45;;;;;;;9.52;6.50;;;17.70;99.90;;;;;;5016524;28;20041;-76
2022/04/12 11:29:19;;;;;;;9.68;6.43;;;17.90;99.90;;;;;;5016696;28;20433;-73
2022/04/12 11:31:45;;;;;;;10.93;6.95;;;17.90;99.50;;;;;;5016926;28;20057;-75
2022/04/12 11:34:12;;;;;;;11.47;6.77;;;18.00;99.90;;;;;;5016518;28;20386;-75
2022/04/12 11:36:39;;;;;;;10.63;6.93;;;18.00;99.50;;;;;;5016325;28;20048;-74
2022/04/12 11:39:06;;;;;;;12.05;6.68;;;18.00;99.90;;;;;;5016282;28;20077;-75
2022/04/12 11:41:32;;;;;;;13.80;6.45;;;18.10;99.30;;;;;;5016088;28;20497;-73
2022/04/12 11:44:02;;;;;;;10.40;7.23;;;18.20;99.90;;;;;;5016313;28;20057;-76
2022/04/12 11:46:34;;;;;;;13.82;7.10;;;18.30;99.90;;;;;;5016211;28;20046;-75
2022/04/12 11:49:13;;;;;;;12.85;7.10;;;18.40;99.70;;;;;;5016210;28;20129;-73
2022/04/12 11:51:46;;;;;;;11.52;7.60;;;18.50;99.30;;;;;;4999053;28;20095;-74
2022/04/12 11:54:24;;;;;;;13.88;7.32;;;18.50;99.20;;;;;;5015896;28;20394;-75
2022/04/12 11:56:57;;;;;;;15.02;7.63;;;18.70;98.30;;;;;;5016005;28;20050;-75
2022/04/12 11:59:23;;;;;;;18.38;6.88;;;18.70;99.10;;;;;;5015964;28;20096;-74
2022/04/12 12:01:48;;;;;;;15.60;7.83;;;18.80;99.60;;;;;;5015929;28;20046;-75
2022/04/12 12:04:14;;;;;;;13.83;7.70;;;18.90;98.80;;;;;;5015926;28;20406;-75
2022/04/12 12:06:59;;;;;;;11.23;7.50;;;19.00;99.40;;;;;;5016322;28;20049;-74
2022/04/12 12:09:26;;;;;;;14.90;7.43;;;19.00;98.20;;;;;;5016038;28;20445;-75
2022/04/12 12:11:52;;;;;;;13.20;7.43;;;19.10;98.70;;;;;;5015572;28;20048;-75
2022/04/12 12:14:20;;;;;;;11.13;7.33;;;19.20;99.00;;;;;;4998493;28;20046;-74
2022/04/12 12:16:59;;;;;;;13.00;7.25;;;19.40;98.90;;;;;;5015542;28;20128;-77
2022/04/12 12:19:25;;;;;;;12.25;7.30;;;19.40;97.90;;;;;;5015685;28;20045;-73
2022/04/12 12:21:52;;;;;;;12.63;7.20;;;19.50;98.50;;;;;;5015491;28;20046;-74
2022/04/12 12:24:17;;;;;;;11.40;6.30;;;19.80;97.70;;;;;;5015764;28;20046;-74
2022/04/12 12:26:43;;;;;;;10.27;5.73;;;19.90;98.20;;;;;;5015627;28;20548;-73
2022/04/12 12:29:09;;;;;;;10.23;5.43;;;20.00;96.50;;;;;;5014556;28;20041;-75
2022/04/12 12:31:42;;;;;;;;;;;20.30;96.80;;;;;;5019498;28;20057;-75
2022/04/12 12:34:08;;;;;;;10.93;5.68;;;20.50;95.00;;;;;;5034709;28;20015;-76
2022/04/12 12:36:33;;;;;;;12.27;6.13;;;20.60;96.10;;;;;;5035006;28;20141;-73
2022/04/12 12:39:05;;;;;;;11.87;5.07;;;20.70;96.00;;;;;;5034923;28;20049;-74
2022/04/12 12:41:32;;;;;;;12.65;5.68;;;20.70;94.80;;;;;;5034735;28;20075;-76
2022/04/12 12:44:03;;;;;;;9.40;5.55;;;20.70;94.80;;;;;;5034810;28;20088;-77
2022/04/12 12:46:32;;;;;;;10.07;5.57;;;20.80;95.10;;;;;;5034646;28;20207;-74